createdAt,value
2022-12-08T00:00:34.033Z,0.00
2022-12-08T00:01:33.523Z,0.00
2022-12-08T00:02:33.933Z,0.00
2022-12-08T00:03:33.805Z,0.00
2022-12-08T00:04:33.470Z,0.00
2022-12-08T00:05:33.827Z,0.00
2022-12-08T00:06:33.538Z,0.00
2022-12-08T00:07:33.761Z,0.00
2022-12-08T00:08:34.114Z,0.00
2022-12-08T00:09:38.755Z,0.00
2022-12-08T00:10:49.044Z,0.00
2022-12-08T00:11:33.669Z,0.00
2022-12-08T00:12:33.858Z,0.00
2022-12-08T00:13:33.557Z,0.00
2022-12-08T00:14:34.580Z,0.00
2022-12-08T00:15:33.665Z,0.00
2022-12-08T00:16:32.728Z,0.00
2022-12-08T00:17:33.406Z,0.00
2022-12-08T00:18:33.598Z,0.00
2022-12-08T00:19:33.612Z,0.00
2022-12-08T00:20:33.516Z,0.00
2022-12-08T00:21:33.743Z,0.00
2022-12-08T00:22:33.490Z,0.00
2022-12-08T00:23:33.532Z,0.00
2022-12-08T00:24:33.425Z,0.00
2022-12-08T00:25:33.533Z,0.00
2022-12-08T00:26:33.490Z,0.00
2022-12-08T00:27:33.709Z,0.00
2022-12-08T00:28:33.422Z,0.00
2022-12-08T00:29:33.372Z,0.00
2022-12-08T00:30:33.371Z,0.00
2022-12-08T00:31:33.541Z,0.00
2022-12-08T00:32:33.541Z,0.00
2022-12-08T00:33:33.361Z,0.00
2022-12-08T00:34:33.238Z,0.00
2022-12-08T00:35:34.846Z,0.00
2022-12-08T00:36:33.355Z,0.00
2022-12-08T00:37:33.354Z,0.00
2022-12-08T00:38:34.028Z,0.00
2022-12-08T00:39:33.553Z,0.00
2022-12-08T00:40:33.443Z,0.00
2022-12-08T00:41:33.241Z,0.00
2022-12-08T00:42:33.217Z,0.00
2022-12-08T00:43:34.854Z,0.00
2022-12-08T00:44:33.530Z,0.00
2022-12-08T00:45:33.360Z,0.00
2022-12-08T00:46:33.241Z,0.00
2022-12-08T00:47:33.203Z,0.00
2022-12-08T00:48:33.245Z,0.00
2022-12-08T00:49:33.289Z,0.00
2022-12-08T00:50:33.228Z,0.00
2022-12-08T00:51:33.122Z,0.00
2022-12-08T00:52:33.285Z,0.00
2022-12-08T00:53:32.913Z,0.00
2022-12-08T00:54:33.603Z,0.00
2022-12-08T00:55:33.255Z,0.00
2022-12-08T00:56:33.144Z,0.00
2022-12-08T00:57:33.359Z,0.00
2022-12-08T00:58:33.066Z,0.00
2022-12-08T00:59:33.042Z,0.00
2022-12-08T01:00:33.510Z,0.00
2022-12-08T01:01:33.932Z,0.00
2022-12-08T01:02:33.072Z,0.00
2022-12-08T01:03:33.376Z,0.00
2022-12-08T01:04:33.174Z,0.00
2022-12-08T01:06:16.820Z,0.00
2022-12-08T01:07:16.453Z,0.00
2022-12-08T01:08:16.516Z,0.00
2022-12-08T01:09:16.687Z,0.00
2022-12-08T01:10:16.419Z,0.00
2022-12-08T01:11:16.832Z,0.00
2022-12-08T01:12:16.234Z,0.00
2022-12-08T01:13:16.423Z,0.00
2022-12-08T01:14:16.392Z,0.00
2022-12-08T01:15:16.444Z,0.00
2022-12-08T01:16:16.108Z,0.00
2022-12-08T01:17:16.222Z,0.00
2022-12-08T01:18:16.340Z,0.00
2022-12-08T01:19:16.252Z,0.00
2022-12-08T01:20:16.378Z,0.00
2022-12-08T01:21:16.492Z,0.00
2022-12-08T01:22:16.137Z,0.00
2022-12-08T01:23:16.781Z,0.00
2022-12-08T01:24:16.083Z,0.00
2022-12-08T01:25:16.121Z,0.00
2022-12-08T01:26:16.301Z,0.00
2022-12-08T01:27:16.291Z,0.00
2022-12-08T01:28:16.539Z,0.00
2022-12-08T01:29:16.123Z,0.00
2022-12-08T01:30:16.097Z,0.00
2022-12-08T01:31:16.943Z,0.00
2022-12-08T01:32:16.106Z,0.00
2022-12-08T01:33:16.305Z,0.00
2022-12-08T01:34:15.941Z,0.00
2022-12-08T01:35:16.130Z,0.00
2022-12-08T01:36:16.004Z,0.00
2022-12-08T01:37:18.886Z,0.00
2022-12-08T01:38:16.081Z,0.00
2022-12-08T01:39:16.221Z,0.00
2022-12-08T01:40:15.963Z,0.00
2022-12-08T01:41:16.290Z,0.00
2022-12-08T01:42:15.940Z,0.00
2022-12-08T01:43:16.500Z,0.00
2022-12-08T01:44:16.338Z,0.00
2022-12-08T01:45:16.195Z,0.00
2022-12-08T01:46:15.833Z,0.00
2022-12-08T01:47:15.788Z,0.00
2022-12-08T01:48:16.165Z,0.00
2022-12-08T01:49:17.525Z,0.00
2022-12-08T01:50:16.265Z,0.00
2022-12-08T01:51:15.764Z,0.00
2022-12-08T01:52:16.282Z,0.00
2022-12-08T01:53:15.838Z,0.00
2022-12-08T01:54:15.933Z,0.00
2022-12-08T01:55:15.713Z,0.00
2022-12-08T01:56:52.053Z,0.00
2022-12-08T01:57:16.221Z,0.00
2022-12-08T01:58:15.751Z,0.00
2022-12-08T01:59:15.951Z,0.00
2022-12-08T02:00:16.965Z,0.00
2022-12-08T02:01:15.906Z,0.00
2022-12-08T02:02:15.938Z,0.00
2022-12-08T02:03:15.915Z,0.00
2022-12-08T02:04:15.700Z,0.00
2022-12-08T02:05:16.059Z,0.00
2022-12-08T02:06:15.611Z,0.00
2022-12-08T02:07:15.925Z,0.00
2022-12-08T02:08:15.755Z,0.00
2022-12-08T02:09:16.307Z,0.00
2022-12-08T02:10:16.227Z,0.00
2022-12-08T02:11:16.083Z,0.00
2022-12-08T02:12:15.683Z,0.00
2022-12-08T02:13:15.624Z,0.00
2022-12-08T02:14:15.709Z,0.00
2022-12-08T02:15:15.604Z,0.00
2022-12-08T02:16:15.904Z,0.00
2022-12-08T02:17:15.804Z,0.00
2022-12-08T02:18:15.655Z,0.00
2022-12-08T02:19:31.570Z,0.00
2022-12-08T02:20:15.714Z,0.00
2022-12-08T02:21:15.737Z,0.00
2022-12-08T02:22:15.680Z,0.00
2022-12-08T02:23:16.063Z,0.00
2022-12-08T02:24:15.512Z,0.00
2022-12-08T02:25:15.721Z,0.00
2022-12-08T02:26:15.609Z,0.00
2022-12-08T02:27:16.431Z,0.00
2022-12-08T02:28:15.666Z,0.00
2022-12-08T02:29:15.940Z,0.00
2022-12-08T02:30:15.537Z,0.00
2022-12-08T02:31:15.807Z,0.00
2022-12-08T02:32:15.865Z,0.00
2022-12-08T02:33:15.573Z,0.00
2022-12-08T02:34:15.402Z,0.00
2022-12-08T02:35:15.608Z,0.00
2022-12-08T02:36:15.688Z,0.00
2022-12-08T02:37:15.894Z,0.00
2022-12-08T02:38:15.524Z,0.00
2022-12-08T02:39:15.639Z,0.00
2022-12-08T02:40:16.288Z,0.00
2022-12-08T02:41:15.405Z,0.00
2022-12-08T02:42:15.484Z,0.00
2022-12-08T02:43:15.221Z,0.00
2022-12-08T02:44:15.321Z,0.00
2022-12-08T02:45:15.408Z,0.00
2022-12-08T02:46:15.584Z,0.00
2022-12-08T02:47:15.233Z,0.00
2022-12-08T02:48:15.415Z,0.00
2022-12-08T02:49:15.241Z,0.00
2022-12-08T02:50:15.392Z,0.00
2022-12-08T02:51:15.350Z,0.00
2022-12-08T02:52:15.365Z,0.00
2022-12-08T02:53:59.398Z,0.00
2022-12-08T02:55:00.024Z,0.00
2022-12-08T02:55:59.583Z,0.00
2022-12-08T02:56:59.447Z,0.00
2022-12-08T02:57:59.480Z,0.00
2022-12-08T02:58:59.369Z,0.00
2022-12-08T02:59:59.614Z,0.00
2022-12-08T03:00:59.583Z,0.00
2022-12-08T03:01:59.579Z,0.00
2022-12-08T03:03:00.210Z,0.00
2022-12-08T03:03:59.471Z,0.00
2022-12-08T03:04:59.719Z,0.00
2022-12-08T03:05:59.538Z,0.00
2022-12-08T03:06:59.322Z,0.00
2022-12-08T03:07:59.351Z,0.00
2022-12-08T03:08:59.359Z,0.00
2022-12-08T03:09:59.587Z,0.00
2022-12-08T03:11:00.103Z,0.00
2022-12-08T03:11:59.665Z,0.00
2022-12-08T03:12:59.591Z,0.00
2022-12-08T03:14:01.158Z,0.00
2022-12-08T03:14:59.507Z,0.00
2022-12-08T03:15:59.439Z,0.00
2022-12-08T03:16:59.294Z,0.00
2022-12-08T03:17:59.496Z,0.00
2022-12-08T03:18:59.360Z,0.00
2022-12-08T03:19:59.230Z,0.00
2022-12-08T03:20:59.296Z,0.00
2022-12-08T03:22:00.111Z,0.00
2022-12-08T03:22:59.428Z,0.00
2022-12-08T03:23:59.516Z,0.00
2022-12-08T03:24:59.251Z,0.00
2022-12-08T03:25:59.316Z,0.00
2022-12-08T03:26:59.278Z,0.00
2022-12-08T03:27:59.215Z,0.00
2022-12-08T03:28:59.170Z,0.00
2022-12-08T03:29:59.235Z,0.00
2022-12-08T03:30:59.451Z,0.00
2022-12-08T03:31:59.487Z,0.00
2022-12-08T03:32:59.893Z,0.00
2022-12-08T03:33:59.727Z,0.00
2022-12-08T03:34:59.344Z,0.00
2022-12-08T03:35:59.735Z,0.00
2022-12-08T03:36:59.401Z,0.00
2022-12-08T03:38:58.353Z,0.00
2022-12-08T03:39:59.420Z,0.00
2022-12-08T03:40:59.344Z,0.00
2022-12-08T03:41:59.143Z,0.00
2022-12-08T03:42:59.177Z,0.00
2022-12-08T03:43:59.285Z,0.00
2022-12-08T03:44:59.180Z,0.00
2022-12-08T03:45:59.100Z,0.00
2022-12-08T03:46:59.161Z,0.00
2022-12-08T03:47:59.133Z,0.00
2022-12-08T03:48:59.103Z,0.00
2022-12-08T03:49:59.144Z,0.00
2022-12-08T03:50:59.151Z,0.00
2022-12-08T03:51:59.082Z,0.00
2022-12-08T03:52:59.029Z,0.00
2022-12-08T03:53:59.145Z,0.00
2022-12-08T03:54:59.069Z,0.00
2022-12-08T03:55:59.010Z,0.00
2022-12-08T03:56:59.001Z,0.00
2022-12-08T03:57:59.080Z,0.00
2022-12-08T03:58:59.038Z,0.00
2022-12-08T03:59:58.966Z,0.00
2022-12-08T04:00:59.001Z,0.00
2022-12-08T04:01:59.003Z,0.00
2022-12-08T04:02:59.050Z,0.00
2022-12-08T04:03:59.006Z,0.00
2022-12-08T04:04:58.925Z,0.00
2022-12-08T04:05:58.938Z,0.00
2022-12-08T04:06:58.874Z,0.00
2022-12-08T04:07:58.985Z,0.00
2022-12-08T04:08:58.864Z,0.00
2022-12-08T04:09:58.925Z,0.00
2022-12-08T04:10:58.890Z,0.00
2022-12-08T04:11:58.895Z,0.00
2022-12-08T04:12:58.839Z,0.00
2022-12-08T04:13:58.889Z,0.00
2022-12-08T04:14:58.811Z,0.00
2022-12-08T04:15:58.919Z,0.00
2022-12-08T04:16:58.807Z,0.00
2022-12-08T04:17:58.854Z,0.00
2022-12-08T04:18:58.771Z,0.00
2022-12-08T04:19:58.753Z,0.00
2022-12-08T04:20:58.722Z,0.00
2022-12-08T04:21:58.731Z,0.00
2022-12-08T04:22:58.743Z,0.00
2022-12-08T04:24:01.233Z,0.00
2022-12-08T04:24:58.751Z,0.00
2022-12-08T04:25:58.727Z,0.00
2022-12-08T04:26:58.722Z,0.00
2022-12-08T04:27:58.678Z,0.00
2022-12-08T04:28:58.704Z,0.00
2022-12-08T04:29:58.748Z,0.00
2022-12-08T04:30:58.713Z,0.00
2022-12-08T04:31:58.780Z,0.00
2022-12-08T04:32:58.680Z,0.00
2022-12-08T04:33:58.644Z,0.00
2022-12-08T04:34:58.633Z,0.00
2022-12-08T04:35:58.633Z,0.00
2022-12-08T04:36:58.584Z,0.00
2022-12-08T04:37:58.581Z,0.00
2022-12-08T04:38:58.628Z,0.00
2022-12-08T04:39:58.576Z,0.00
2022-12-08T04:40:58.532Z,0.00
2022-12-08T04:41:58.557Z,0.00
2022-12-08T04:42:58.556Z,0.00
2022-12-08T04:43:58.547Z,0.00
2022-12-08T04:44:58.508Z,0.00
2022-12-08T04:45:58.561Z,0.00
2022-12-08T04:46:58.560Z,0.00
2022-12-08T04:47:58.509Z,0.00
2022-12-08T04:48:58.492Z,0.00
2022-12-08T04:49:58.528Z,0.00
2022-12-08T04:50:58.460Z,0.00
2022-12-08T04:51:58.472Z,0.00
2022-12-08T04:52:58.446Z,0.00
2022-12-08T04:53:58.449Z,0.00
2022-12-08T04:54:58.428Z,0.00
2022-12-08T04:55:58.449Z,0.00
2022-12-08T04:56:58.380Z,0.00
2022-12-08T04:57:58.372Z,0.00
2022-12-08T04:58:58.489Z,0.00
2022-12-08T04:59:58.388Z,0.00
2022-12-08T05:00:58.501Z,0.00
2022-12-08T05:01:58.462Z,0.00
2022-12-08T05:02:58.429Z,0.00
2022-12-08T05:03:58.357Z,0.00
2022-12-08T05:04:58.305Z,0.00
2022-12-08T05:05:58.320Z,0.00
2022-12-08T05:06:58.294Z,0.00
2022-12-08T05:07:58.351Z,0.00
2022-12-08T05:08:58.360Z,0.00
2022-12-08T05:09:58.309Z,0.00
2022-12-08T05:10:58.260Z,0.00
2022-12-08T05:11:58.233Z,0.00
2022-12-08T05:12:58.208Z,0.00
2022-12-08T05:13:58.234Z,0.00
2022-12-08T05:14:58.239Z,0.00
2022-12-08T05:15:58.321Z,0.00
2022-12-08T05:16:58.201Z,0.00
2022-12-08T05:17:58.170Z,0.00
2022-12-08T05:18:58.144Z,0.00
2022-12-08T05:19:58.183Z,0.00
2022-12-08T05:20:58.146Z,0.00
2022-12-08T05:21:58.229Z,0.00
2022-12-08T05:22:58.144Z,0.00
2022-12-08T05:23:58.182Z,0.00
2022-12-08T05:24:58.205Z,0.00
2022-12-08T05:25:58.106Z,0.00
2022-12-08T05:26:58.111Z,0.00
2022-12-08T05:28:17.568Z,0.00
2022-12-08T05:28:58.092Z,0.00
2022-12-08T05:29:58.094Z,0.00
2022-12-08T05:30:58.022Z,0.00
2022-12-08T05:31:58.099Z,0.00
2022-12-08T05:32:58.061Z,0.00
2022-12-08T05:34:02.743Z,0.00
2022-12-08T05:34:58.009Z,0.00
2022-12-08T05:35:58.098Z,0.00
2022-12-08T05:36:57.963Z,0.00
2022-12-08T05:37:58.029Z,0.00
2022-12-08T05:38:57.975Z,0.00
2022-12-08T05:39:58.029Z,0.00
2022-12-08T05:40:57.943Z,0.00
2022-12-08T05:41:57.969Z,0.00
2022-12-08T05:42:57.907Z,0.00
2022-12-08T05:43:57.934Z,0.00
2022-12-08T05:44:57.882Z,0.00
2022-12-08T05:45:57.920Z,0.00
2022-12-08T05:46:57.875Z,0.00
2022-12-08T05:47:57.830Z,0.00
2022-12-08T05:48:57.969Z,0.00
2022-12-08T05:49:57.824Z,0.00
2022-12-08T05:50:57.843Z,0.00
2022-12-08T05:51:57.860Z,0.00
2022-12-08T05:52:57.877Z,0.00
2022-12-08T05:53:57.801Z,0.00
2022-12-08T05:54:57.787Z,0.00
2022-12-08T05:55:57.748Z,0.00
2022-12-08T05:56:57.784Z,0.00
2022-12-08T05:57:58.607Z,0.00
2022-12-08T05:58:57.714Z,0.00
2022-12-08T05:59:57.705Z,0.00
2022-12-08T06:00:57.686Z,0.00
2022-12-08T06:01:57.895Z,0.00
2022-12-08T06:02:57.879Z,0.00
2022-12-08T06:03:57.672Z,0.00
2022-12-08T06:04:57.670Z,0.00
2022-12-08T06:05:57.650Z,0.00
2022-12-08T06:06:57.648Z,0.00
2022-12-08T06:07:57.686Z,0.00
2022-12-08T06:08:57.614Z,0.00
2022-12-08T06:09:57.628Z,0.00
2022-12-08T06:10:57.594Z,0.00
2022-12-08T06:11:57.620Z,0.00
2022-12-08T06:12:57.583Z,0.00
2022-12-08T06:13:57.606Z,0.00
2022-12-08T06:14:57.573Z,0.00
2022-12-08T06:15:57.581Z,0.00
2022-12-08T06:16:57.619Z,0.00
2022-12-08T06:17:57.521Z,0.00
2022-12-08T06:18:57.542Z,0.00
2022-12-08T06:19:57.511Z,0.00
2022-12-08T06:20:57.502Z,0.00
2022-12-08T06:21:57.489Z,0.00
2022-12-08T06:22:57.459Z,0.00
2022-12-08T06:23:57.634Z,0.00
2022-12-08T06:24:57.457Z,0.00
2022-12-08T06:25:57.465Z,0.00
2022-12-08T06:26:57.437Z,0.00
2022-12-08T06:27:57.443Z,0.00
2022-12-08T06:28:57.428Z,0.00
2022-12-08T06:29:57.431Z,0.00
2022-12-08T06:30:57.402Z,0.00
2022-12-08T06:31:57.472Z,0.00
2022-12-08T06:32:57.372Z,0.00
2022-12-08T06:33:57.364Z,0.00
2022-12-08T06:34:57.337Z,0.00
2022-12-08T06:35:57.343Z,0.00
2022-12-08T06:36:57.333Z,0.00
2022-12-08T06:37:57.396Z,0.00
2022-12-08T06:38:57.305Z,0.00
2022-12-08T06:39:57.316Z,0.00
2022-12-08T06:41:03.749Z,0.00
2022-12-08T06:42:05.538Z,0.00
2022-12-08T06:42:58.435Z,0.00
2022-12-08T06:43:57.342Z,0.00
2022-12-08T06:44:57.254Z,0.00
2022-12-08T06:45:57.320Z,0.00
2022-12-08T06:46:57.257Z,0.00
2022-12-08T06:47:57.240Z,0.00
2022-12-08T06:48:57.271Z,0.00
2022-12-08T06:49:57.210Z,0.00
2022-12-08T06:50:57.206Z,0.00
2022-12-08T06:51:57.198Z,0.00
2022-12-08T06:53:04.797Z,0.00
2022-12-08T06:53:57.178Z,0.00
2022-12-08T06:54:57.101Z,1.00
2022-12-08T06:55:59.665Z,0.00
2022-12-08T06:56:57.072Z,1.00
2022-12-08T06:57:57.253Z,1.00
2022-12-08T06:58:57.071Z,1.00
2022-12-08T06:59:57.094Z,1.00
2022-12-08T07:00:57.111Z,2.00
2022-12-08T07:01:57.100Z,0.00
2022-12-08T07:02:57.150Z,2.00
2022-12-08T07:03:57.051Z,1.00
2022-12-08T07:04:57.022Z,1.00
2022-12-08T07:06:03.253Z,0.00
2022-12-08T07:06:56.996Z,2.00
2022-12-08T07:07:57.095Z,1.00
2022-12-08T07:08:56.984Z,5.00
2022-12-08T07:09:56.978Z,5.00
2022-12-08T07:10:56.929Z,5.00
2022-12-08T07:11:56.901Z,9.00
2022-12-08T07:12:56.905Z,9.00
2022-12-08T07:13:56.910Z,9.00
2022-12-08T07:14:56.888Z,9.00
2022-12-08T07:15:56.906Z,8.00
2022-12-08T07:16:56.993Z,8.00
2022-12-08T07:18:00.107Z,10.00
2022-12-08T07:18:56.855Z,11.00
2022-12-08T07:19:56.831Z,11.00
2022-12-08T07:20:56.810Z,15.00
2022-12-08T07:21:56.813Z,21.00
2022-12-08T07:22:57.040Z,18.00
2022-12-08T07:23:58.012Z,17.00
2022-12-08T07:24:56.768Z,20.00
2022-12-08T07:25:56.804Z,19.00
2022-12-08T07:26:56.803Z,19.00
2022-12-08T07:27:56.740Z,20.00
2022-12-08T07:28:56.749Z,28.00
2022-12-08T07:29:56.746Z,31.00
2022-12-08T07:30:56.748Z,29.00
2022-12-08T07:31:56.696Z,34.00
2022-12-08T07:32:56.714Z,36.00
2022-12-08T07:33:56.690Z,35.00
2022-12-08T07:34:56.670Z,37.00
2022-12-08T07:35:56.668Z,43.00
2022-12-08T07:36:56.644Z,38.00
2022-12-08T07:37:56.643Z,45.00
2022-12-08T07:38:56.679Z,43.00
2022-12-08T07:39:56.676Z,44.00
2022-12-08T07:40:56.630Z,46.00
2022-12-08T07:41:56.614Z,47.00
2022-12-08T07:42:56.625Z,52.00
2022-12-08T07:43:56.627Z,54.00
2022-12-08T07:44:56.576Z,58.00
2022-12-08T07:45:56.752Z,55.00
2022-12-08T07:46:56.554Z,56.00
2022-12-08T07:47:56.534Z,65.00
2022-12-08T07:48:56.610Z,55.00
2022-12-08T07:49:56.573Z,73.00
2022-12-08T07:50:56.504Z,69.00
2022-12-08T07:51:56.526Z,70.00
2022-12-08T07:52:56.508Z,93.00
2022-12-08T07:53:56.490Z,95.00
2022-12-08T07:54:56.481Z,92.00
2022-12-08T07:55:56.524Z,83.00
2022-12-08T07:56:56.450Z,76.00
2022-12-08T07:57:56.448Z,80.00
2022-12-08T07:58:56.447Z,109.00
2022-12-08T07:59:56.554Z,98.00
2022-12-08T08:00:56.518Z,95.00
2022-12-08T08:02:22.411Z,101.00
2022-12-08T08:02:56.504Z,94.00
2022-12-08T08:03:56.377Z,112.00
2022-12-08T08:04:56.418Z,104.00
2022-12-08T08:05:56.359Z,102.00
2022-12-08T08:06:56.354Z,130.00
2022-12-08T08:07:56.395Z,146.00
2022-12-08T08:08:56.349Z,147.00
2022-12-08T08:09:56.312Z,142.00
2022-12-08T08:10:56.333Z,131.00
2022-12-08T08:12:29.086Z,140.00
2022-12-08T08:12:56.317Z,154.00
2022-12-08T08:13:56.249Z,169.00
2022-12-08T08:14:56.286Z,158.00
2022-12-08T08:15:56.400Z,177.00
2022-12-08T08:16:56.523Z,209.00
2022-12-08T08:17:56.222Z,245.00
2022-12-08T08:18:56.256Z,200.00
2022-12-08T08:19:56.220Z,289.00
2022-12-08T08:20:57.979Z,244.00
2022-12-08T08:21:56.186Z,255.00
2022-12-08T08:22:56.176Z,267.00
2022-12-08T08:23:56.159Z,242.00
2022-12-08T08:24:56.230Z,304.00
2022-12-08T08:25:56.179Z,294.00
2022-12-08T08:26:56.142Z,276.00
2022-12-08T08:27:56.159Z,283.00
2022-12-08T08:28:56.126Z,300.00
2022-12-08T08:29:56.100Z,277.00
2022-12-08T08:30:56.138Z,298.00
2022-12-08T08:31:56.112Z,303.00
2022-12-08T08:32:56.063Z,292.00
2022-12-08T08:33:56.050Z,309.00
2022-12-08T08:34:56.123Z,279.00
2022-12-08T08:35:56.082Z,289.00
2022-12-08T08:36:56.069Z,292.00
2022-12-08T08:37:56.045Z,298.00
2022-12-08T08:38:56.017Z,270.00
2022-12-08T08:39:56.021Z,276.00
2022-12-08T08:40:56.026Z,279.00
2022-12-08T08:41:56.019Z,265.00
2022-12-08T08:42:55.988Z,291.00
2022-12-08T08:43:55.973Z,288.00
2022-12-08T08:44:56.048Z,293.00
2022-12-08T08:45:56.002Z,284.00
2022-12-08T08:46:55.986Z,280.00
2022-12-08T08:47:55.950Z,304.00
2022-12-08T08:48:55.988Z,336.00
2022-12-08T08:49:55.899Z,361.00
2022-12-08T08:50:55.923Z,369.00
2022-12-08T08:51:55.999Z,367.00
2022-12-08T08:52:55.893Z,380.00
2022-12-08T08:53:55.858Z,400.00
2022-12-08T08:54:55.881Z,381.00
2022-12-08T08:55:55.860Z,381.00
2022-12-08T08:56:55.836Z,395.00
2022-12-08T08:57:55.818Z,389.00
2022-12-08T08:58:55.878Z,402.00
2022-12-08T08:59:55.821Z,400.00
2022-12-08T09:00:55.820Z,388.00
2022-12-08T09:01:55.893Z,375.00
2022-12-08T09:02:55.806Z,384.00
2022-12-08T09:03:55.789Z,381.00
2022-12-08T09:04:55.838Z,375.00
2022-12-08T09:05:55.776Z,382.00
2022-12-08T09:06:55.742Z,395.00
2022-12-08T09:07:55.794Z,405.00
2022-12-08T09:08:55.709Z,416.00
2022-12-08T09:10:01.268Z,429.00
2022-12-08T09:10:55.746Z,433.00
2022-12-08T09:11:55.704Z,425.00
2022-12-08T09:12:55.679Z,439.00
2022-12-08T09:13:55.655Z,448.00
2022-12-08T09:14:55.690Z,466.00
2022-12-08T09:15:55.685Z,483.00
2022-12-08T09:16:55.628Z,514.00
2022-12-08T09:17:55.640Z,523.00
2022-12-08T09:18:55.610Z,522.00
2022-12-08T09:19:55.591Z,489.00
2022-12-08T09:20:55.681Z,473.00
2022-12-08T09:21:55.632Z,480.00
2022-12-08T09:22:55.579Z,494.00
2022-12-08T09:23:55.578Z,507.00
2022-12-08T09:24:55.592Z,518.00
2022-12-08T09:25:55.537Z,564.00
2022-12-08T09:26:55.531Z,554.00
2022-12-08T09:27:55.509Z,543.00
2022-12-08T09:28:55.516Z,525.00
2022-12-08T09:29:55.490Z,553.00
2022-12-08T09:30:55.567Z,578.00
2022-12-08T09:31:55.523Z,578.00
2022-12-08T09:32:55.465Z,584.00
2022-12-08T09:33:55.509Z,584.00
2022-12-08T09:34:55.494Z,586.00
2022-12-08T09:35:55.434Z,582.00
2022-12-08T09:36:55.436Z,565.00
2022-12-08T09:37:55.438Z,547.00
2022-12-08T09:38:55.430Z,552.00
2022-12-08T09:39:55.412Z,555.00
2022-12-08T09:40:55.397Z,601.00
2022-12-08T09:41:55.383Z,631.00
2022-12-08T09:42:55.362Z,662.00
2022-12-08T09:43:55.409Z,627.00
2022-12-08T09:44:55.357Z,642.00
2022-12-08T09:45:55.314Z,687.00
2022-12-08T09:46:55.403Z,734.00
2022-12-08T09:47:55.303Z,773.00
2022-12-08T09:48:55.304Z,831.00
2022-12-08T09:49:55.315Z,865.00
2022-12-08T09:50:55.291Z,867.00
2022-12-08T09:51:55.264Z,861.00
2022-12-08T09:52:55.253Z,845.00
2022-12-08T09:53:55.289Z,829.00
2022-12-08T09:54:55.231Z,836.00
2022-12-08T09:55:55.218Z,845.00
2022-12-08T09:56:55.235Z,836.00
2022-12-08T09:57:56.636Z,841.00
2022-12-08T09:58:55.193Z,833.00
2022-12-08T09:59:55.204Z,854.00
2022-12-08T10:00:55.190Z,860.00
2022-12-08T10:01:55.233Z,854.00
2022-12-08T10:02:55.141Z,859.00
2022-12-08T10:03:55.208Z,857.00
2022-12-08T10:04:55.195Z,899.00
2022-12-08T10:05:55.143Z,955.00
2022-12-08T10:06:55.126Z,1023.00
2022-12-08T10:07:55.159Z,1083.00
2022-12-08T10:08:55.110Z,1123.00
2022-12-08T10:09:55.099Z,1151.00
2022-12-08T10:10:55.105Z,1157.00
2022-12-08T10:11:55.050Z,1165.00
2022-12-08T10:12:55.076Z,1178.00
2022-12-08T10:13:55.035Z,1190.00
2022-12-08T10:14:55.047Z,1213.00
2022-12-08T10:15:55.063Z,1234.00
2022-12-08T10:16:55.069Z,1265.00
2022-12-08T10:17:55.042Z,1293.00
2022-12-08T10:18:54.982Z,1314.00
2022-12-08T10:19:55.046Z,1320.00
2022-12-08T10:20:55.031Z,1326.00
2022-12-08T10:21:54.942Z,1312.00
2022-12-08T10:22:54.995Z,1306.00
2022-12-08T10:23:54.926Z,1309.00
2022-12-08T10:24:54.919Z,1301.00
2022-12-08T10:25:54.925Z,1284.00
2022-12-08T10:26:54.932Z,1274.00
2022-12-08T10:27:54.875Z,1261.00
2022-12-08T10:28:54.882Z,1252.00
2022-12-08T10:29:54.876Z,1252.00
2022-12-08T10:30:54.978Z,1235.00
2022-12-08T10:31:54.923Z,1229.00
2022-12-08T10:32:54.875Z,1216.00
2022-12-08T10:33:54.848Z,1219.00
2022-12-08T10:34:56.401Z,1218.00
2022-12-08T10:35:54.799Z,1202.00
2022-12-08T10:36:54.872Z,1214.00
2022-12-08T10:37:54.790Z,1201.00
2022-12-08T10:38:54.787Z,1208.00
2022-12-08T10:39:54.793Z,1219.00
2022-12-08T10:40:54.756Z,1222.00
2022-12-08T10:41:54.756Z,1241.00
2022-12-08T10:42:54.792Z,1241.00
2022-12-08T10:43:54.727Z,1206.00
2022-12-08T10:44:54.712Z,1198.00
2022-12-08T10:45:54.729Z,1190.00
2022-12-08T10:46:54.837Z,1183.00
2022-12-08T10:47:55.621Z,1155.00
2022-12-08T10:48:54.675Z,1076.00
2022-12-08T10:49:54.692Z,1077.00
2022-12-08T10:50:54.659Z,1128.00
2022-12-08T10:51:54.637Z,1097.00
2022-12-08T10:52:54.651Z,1188.00
2022-12-08T10:53:54.606Z,1039.00
2022-12-08T10:54:54.629Z,1162.00
2022-12-08T10:55:54.620Z,1110.00
2022-12-08T10:56:54.608Z,995.00
2022-12-08T10:57:54.574Z,980.00
2022-12-08T10:58:54.590Z,1085.00
2022-12-08T10:59:54.574Z,1160.00
2022-12-08T11:00:54.623Z,1217.00
2022-12-08T11:01:54.735Z,1270.00
2022-12-08T11:02:54.635Z,1175.00
2022-12-08T11:03:54.558Z,1011.00
2022-12-08T11:04:54.509Z,1099.00
2022-12-08T11:05:54.488Z,1139.00
2022-12-08T11:06:54.549Z,986.00
2022-12-08T11:07:54.554Z,937.00
2022-12-08T11:08:54.508Z,932.00
2022-12-08T11:09:54.451Z,1002.00
2022-12-08T11:10:54.449Z,1191.00
2022-12-08T11:11:54.453Z,1115.00
2022-12-08T11:12:54.464Z,1161.00
2022-12-08T11:13:54.435Z,1118.00
2022-12-08T11:14:54.421Z,981.00
2022-12-08T11:15:54.462Z,1028.00
2022-12-08T11:16:54.473Z,897.00
2022-12-08T11:17:57.616Z,980.00
2022-12-08T11:18:54.394Z,924.00
2022-12-08T11:19:54.382Z,898.00
2022-12-08T11:20:54.365Z,880.00
2022-12-08T11:21:54.333Z,857.00
2022-12-08T11:22:54.320Z,861.00
2022-12-08T11:23:54.318Z,836.00
2022-12-08T11:24:54.343Z,729.00
2022-12-08T11:25:54.341Z,612.00
2022-12-08T11:26:54.320Z,532.00
2022-12-08T11:27:54.274Z,467.00
2022-12-08T11:28:54.295Z,487.00
2022-12-08T11:29:54.261Z,511.00
2022-12-08T11:30:54.252Z,485.00
2022-12-08T11:31:54.288Z,431.00
2022-12-08T11:32:54.229Z,438.00
2022-12-08T11:33:54.190Z,494.00
2022-12-08T11:34:54.214Z,578.00
2022-12-08T11:35:54.198Z,572.00
2022-12-08T11:36:54.200Z,541.00
2022-12-08T11:38:03.065Z,455.00
2022-12-08T11:38:54.167Z,469.00
2022-12-08T11:39:54.292Z,478.00
2022-12-08T11:40:54.197Z,446.00
2022-12-08T11:41:54.150Z,403.00
2022-12-08T11:42:54.165Z,496.00
2022-12-08T11:43:54.250Z,546.00
2022-12-08T11:44:54.177Z,638.00
2022-12-08T11:45:54.145Z,636.00
2022-12-08T11:46:54.138Z,591.00
2022-12-08T11:47:55.935Z,790.00
2022-12-08T11:48:54.161Z,820.00
2022-12-08T11:49:54.159Z,818.00
2022-12-08T11:50:54.078Z,873.00
2022-12-08T11:51:54.061Z,773.00
2022-12-08T11:52:54.191Z,644.00
2022-12-08T11:53:54.182Z,519.00
2022-12-08T11:54:54.089Z,471.00
2022-12-08T11:55:53.999Z,469.00
2022-12-08T11:56:53.980Z,548.00
2022-12-08T11:57:54.120Z,591.00
2022-12-08T11:58:54.769Z,659.00
2022-12-08T11:59:53.969Z,684.00
2022-12-08T12:00:54.051Z,777.00
2022-12-08T12:01:54.083Z,935.00
2022-12-08T12:02:53.949Z,1001.00
2022-12-08T12:03:53.928Z,1035.00
2022-12-08T12:04:53.971Z,1106.00
2022-12-08T12:06:12.939Z,1161.00
2022-12-08T12:06:55.439Z,1084.00
2022-12-08T12:07:53.996Z,940.00
2022-12-08T12:08:53.908Z,811.00
2022-12-08T12:09:53.911Z,713.00
2022-12-08T12:10:53.867Z,621.00
2022-12-08T12:11:53.919Z,583.00
2022-12-08T12:12:54.764Z,528.00
2022-12-08T12:13:53.829Z,526.00
2022-12-08T12:14:53.824Z,571.00
2022-12-08T12:15:53.798Z,595.00
2022-12-08T12:16:54.020Z,593.00
2022-12-08T12:17:53.836Z,567.00
2022-12-08T12:18:53.902Z,565.00
2022-12-08T12:19:53.731Z,501.00
2022-12-08T12:20:53.700Z,518.00
2022-12-08T12:21:53.811Z,532.00
2022-12-08T12:22:53.712Z,534.00
2022-12-08T12:23:53.689Z,609.00
2022-12-08T12:24:53.815Z,443.00
2022-12-08T12:25:53.694Z,540.00
2022-12-08T12:26:53.668Z,628.00
2022-12-08T12:27:57.069Z,573.00
2022-12-08T12:28:53.734Z,469.00
2022-12-08T12:29:55.968Z,480.00
2022-12-08T12:30:53.708Z,500.00
2022-12-08T12:31:53.604Z,479.00
2022-12-08T12:32:53.605Z,500.00
2022-12-08T12:33:53.614Z,589.00
2022-12-08T12:34:53.574Z,686.00
2022-12-08T12:35:53.544Z,732.00
2022-12-08T12:36:53.570Z,631.00
2022-12-08T12:37:53.591Z,558.00
2022-12-08T12:38:53.565Z,642.00
2022-12-08T12:39:54.210Z,614.00
2022-12-08T12:40:53.542Z,697.00
2022-12-08T12:41:53.518Z,794.00
2022-12-08T12:42:53.542Z,743.00
2022-12-08T12:43:53.485Z,655.00
2022-12-08T12:44:53.523Z,713.00
2022-12-08T12:45:53.564Z,698.00
2022-12-08T12:46:53.439Z,631.00
2022-12-08T12:47:56.619Z,590.00
2022-12-08T12:48:53.440Z,507.00
2022-12-08T12:49:53.425Z,646.00
2022-12-08T12:50:53.459Z,698.00
2022-12-08T12:51:53.464Z,643.00
2022-12-08T12:52:53.367Z,671.00
2022-12-08T12:53:53.423Z,603.00
2022-12-08T12:54:53.401Z,633.00
2022-12-08T12:55:53.381Z,687.00
2022-12-08T12:56:53.347Z,719.00